createdAt,value
2022-10-05T03:05:03.712Z,15.75
2022-10-05T03:10:10.336Z,15.82
2022-10-05T03:15:23.716Z,19.15
2022-10-05T03:20:36.429Z,16.08
2022-10-05T03:26:05.428Z,21.35
2022-10-05T03:31:18.309Z,16.67
2022-10-05T03:36:29.685Z,23.40
2022-10-05T03:41:36.665Z,29.65
2022-10-05T03:46:50.114Z,20.75
2022-10-05T03:51:59.700Z,23.02
2022-10-05T03:57:08.451Z,25.08
2022-10-05T04:02:20.871Z,30.10
2022-10-05T04:07:41.325Z,22.98
2022-10-05T04:12:48.123Z,26.92
2022-10-05T04:17:54.462Z,29.63
2022-10-05T04:23:04.925Z,37.20
2022-10-05T04:28:11.776Z,31.90
2022-10-05T04:33:13.536Z,32.17
2022-10-05T04:38:28.177Z,48.30
2022-10-05T04:43:47.677Z,44.87
2022-10-05T04:49:13.717Z,52.83
2022-10-05T04:54:24.566Z,37.10
2022-10-05T05:00:19.096Z,50.70
2022-10-05T05:05:58.740Z,62.47
2022-10-05T05:11:17.405Z,61.92
2022-10-05T05:16:31.561Z,56.95
2022-10-05T05:21:42.298Z,39.28
2022-10-05T05:27:09.371Z,37.13
2022-10-05T05:32:23.204Z,36.15
2022-10-05T05:37:32.182Z,36.90
2022-10-05T05:42:44.171Z,26.42
2022-10-05T05:47:51.722Z,32.63
2022-10-05T05:52:58.498Z,25.23
2022-10-05T05:58:09.086Z,27.37
2022-10-05T06:03:16.639Z,24.67
2022-10-05T06:08:27.692Z,25.52
2022-10-05T06:13:38.476Z,32.70
2022-10-05T06:18:44.610Z,28.08
2022-10-05T06:23:51.769Z,31.33
2022-10-05T06:29:00.644Z,44.47
2022-10-05T06:34:13.336Z,50.28
2022-10-05T06:39:36.142Z,50.25
2022-10-05T06:44:48.444Z,40.30
2022-10-05T06:49:58.051Z,52.08
2022-10-05T06:55:14.396Z,49.60
2022-10-05T07:00:19.952Z,46.30
2022-10-05T07:05:45.100Z,44.95
2022-10-05T07:10:58.853Z,43.03
2022-10-05T07:16:09.015Z,43.65
2022-10-05T07:21:18.551Z,61.67
2022-10-05T07:26:26.757Z,54.03
2022-10-05T07:31:36.281Z,52.55
2022-10-05T07:36:44.617Z,51.10
2022-10-05T07:41:51.541Z,52.50
2022-10-05T07:46:58.464Z,50.05
2022-10-05T07:52:03.042Z,51.08
2022-10-05T07:57:19.516Z,64.10
2022-10-05T08:02:26.900Z,56.22
2022-10-05T08:07:31.685Z,51.05
2022-10-05T08:12:41.233Z,52.22
2022-10-05T08:17:51.726Z,51.35
2022-10-05T08:23:00.187Z,59.65
2022-10-05T08:28:09.971Z,54.17
2022-10-05T08:33:16.899Z,58.35
2022-10-05T08:38:24.287Z,52.33
2022-10-05T08:43:47.501Z,53.72
2022-10-05T08:49:35.194Z,58.80
2022-10-05T08:54:43.328Z,52.70
2022-10-05T09:00:05.894Z,53.42
2022-10-05T09:05:32.965Z,50.67
2022-10-05T09:11:04.910Z,49.70
2022-10-05T09:16:31.257Z,48.38
2022-10-05T09:21:40.823Z,49.70
2022-10-05T09:26:49.944Z,45.90
2022-10-05T09:32:15.670Z,52.20
2022-10-05T09:37:42.632Z,54.70
2022-10-05T09:43:08.277Z,57.47
2022-10-05T09:48:43.824Z,73.43
2022-10-05T09:54:27.080Z,72.97
2022-10-05T10:00:02.469Z,72.10
2022-10-05T10:05:25.414Z,76.62
2022-10-05T10:10:53.028Z,73.18
2022-10-05T10:16:12.371Z,57.22
2022-10-05T10:21:31.466Z,40.35
2022-10-05T10:26:57.959Z,27.45
2022-10-05T10:32:18.664Z,23.17
2022-10-05T10:37:59.725Z,18.58
2022-10-05T10:43:27.172Z,19.67
2022-10-05T10:48:50.891Z,19.20
2022-10-05T10:54:28.436Z,18.45
2022-10-05T11:00:05.565Z,13.88
2022-10-05T11:05:31.503Z,16.08
2022-10-05T11:11:15.584Z,12.75
2022-10-05T11:16:48.066Z,13.68
2022-10-05T11:22:13.043Z,11.27
2022-10-05T11:27:48.343Z,10.70
2022-10-05T11:33:37.898Z,11.02
2022-10-05T11:39:16.622Z,10.05
2022-10-05T11:45:09.157Z,10.57
2022-10-05T11:50:20.183Z,9.40
2022-10-05T11:55:29.856Z,9.55
2022-10-05T12:00:37.195Z,10.45
2022-10-05T12:05:48.327Z,0.35
2022-10-05T12:11:05.424Z,58.63
2022-10-05T12:16:16.411Z,10.05
2022-10-05T12:21:27.474Z,8.68
2022-10-05T12:26:34.893Z,10.02
2022-10-05T12:31:45.727Z,10.05
2022-10-05T12:37:08.275Z,10.95
2022-10-05T12:42:22.513Z,9.65
2022-10-05T12:47:34.020Z,9.73
2022-10-05T12:52:50.161Z,9.57
2022-10-05T12:58:03.303Z,9.70
2022-10-05T13:03:15.290Z,10.30
2022-10-05T13:08:26.041Z,9.68
2022-10-05T13:13:41.025Z,13.05
2022-10-05T13:18:54.979Z,9.77
2022-10-05T13:24:04.071Z,11.00
2022-10-05T13:29:16.535Z,10.75
2022-10-05T13:34:27.862Z,9.85
2022-10-05T13:45:20.161Z,9.43
2022-10-05T13:50:28.529Z,11.07
2022-10-05T13:55:45.329Z,14.75
2022-10-05T14:00:51.291Z,9.50
2022-10-05T14:05:55.964Z,9.43
2022-10-05T14:10:57.830Z,9.60
2022-10-05T14:16:20.411Z,8.65
2022-10-05T14:21:24.136Z,9.65
2022-10-05T14:26:34.320Z,14.82
2022-10-05T14:31:46.649Z,9.20
2022-10-05T14:36:56.169Z,9.13
2022-10-05T14:42:12.181Z,8.98
2022-10-05T14:47:22.090Z,9.60
2022-10-05T14:52:31.070Z,9.30
2022-10-05T14:57:41.478Z,8.80
2022-10-05T15:03:01.660Z,9.93
2022-10-05T15:08:15.746Z,9.30
2022-10-05T15:24:23.232Z,8.02
2022-10-05T15:29:42.764Z,9.55
2022-10-05T15:35:12.500Z,9.05
2022-10-05T15:40:27.869Z,8.68
2022-10-05T15:50:51.858Z,8.50
2022-10-05T15:56:03.131Z,10.35
2022-10-05T16:01:10.514Z,8.40
2022-10-05T16:06:24.795Z,9.48
2022-10-05T16:11:59.235Z,8.82
2022-10-05T16:17:20.826Z,9.00
2022-10-05T16:22:31.355Z,8.80
2022-10-05T16:27:46.675Z,8.68
2022-10-05T16:33:02.380Z,9.40
2022-10-05T16:38:18.513Z,9.32
2022-10-05T16:43:36.517Z,11.12
2022-10-05T16:48:50.100Z,10.02
2022-10-05T16:54:01.932Z,12.60
2022-10-05T16:59:23.953Z,11.45
2022-10-05T17:10:15.471Z,9.73
2022-10-05T17:15:33.637Z,12.85
2022-10-05T17:20:44.268Z,11.43
2022-10-05T17:25:52.519Z,13.07
2022-10-05T17:31:13.656Z,10.82
2022-10-05T17:36:18.076Z,9.75
2022-10-05T17:41:24.965Z,14.47
2022-10-05T17:46:40.633Z,10.00
2022-10-05T17:52:00.479Z,9.80
2022-10-05T17:57:18.980Z,12.07
2022-10-05T18:02:24.580Z,10.75
2022-10-05T18:07:27.163Z,14.15
2022-10-05T18:12:45.270Z,11.10
2022-10-05T18:17:50.883Z,7.90
2022-10-05T18:22:54.347Z,7.05
2022-10-05T18:28:07.188Z,10.55
2022-10-05T18:33:45.633Z,7.28
2022-10-05T18:38:55.890Z,7.82
2022-10-05T18:44:08.662Z,8.48
2022-10-05T18:49:31.132Z,9.10
2022-10-05T18:54:43.793Z,9.25
2022-10-05T18:59:52.824Z,8.57
2022-10-05T19:05:23.584Z,8.70
2022-10-05T19:10:39.024Z,7.93
2022-10-05T19:15:48.586Z,7.22
2022-10-05T19:20:58.666Z,7.90
2022-10-05T19:26:12.994Z,8.10
2022-10-05T19:31:26.031Z,8.00
2022-10-05T19:36:45.208Z,8.10
2022-10-05T19:42:06.764Z,9.32
2022-10-05T19:47:18.599Z,7.80
2022-10-05T19:52:26.722Z,7.72
2022-10-05T19:57:28.457Z,8.00
2022-10-05T20:02:30.232Z,7.82
2022-10-05T20:07:33.494Z,8.13
2022-10-05T20:12:47.602Z,8.48
2022-10-05T20:17:49.316Z,8.23
2022-10-05T20:22:52.391Z,9.05
2022-10-05T20:27:55.512Z,8.27
2022-10-05T20:32:58.753Z,9.77
2022-10-05T20:38:01.833Z,7.68
2022-10-05T20:43:03.608Z,8.95
2022-10-05T20:48:05.376Z,8.07
2022-10-05T20:53:11.855Z,11.10
2022-10-05T20:58:13.928Z,7.90
2022-10-05T21:03:15.691Z,9.00
2022-10-05T21:08:18.857Z,9.40
2022-10-05T21:13:20.611Z,9.00
2022-10-05T21:18:22.371Z,7.50
2022-10-05T21:23:25.462Z,8.05
2022-10-05T21:28:28.079Z,9.63
2022-10-05T21:33:30.540Z,8.75
2022-10-05T21:38:34.009Z,8.48
2022-10-05T21:43:35.991Z,8.88
2022-10-05T21:48:39.287Z,9.90
2022-10-05T21:53:45.804Z,9.70
2022-10-05T21:58:48.087Z,9.55
2022-10-05T22:03:49.847Z,9.40
2022-10-05T22:08:53.024Z,8.15
2022-10-05T22:13:55.600Z,9.30
2022-10-05T22:18:57.495Z,9.73
2022-10-05T22:24:00.551Z,9.48
2022-10-05T22:29:03.715Z,10.32
2022-10-05T22:34:05.577Z,9.68
2022-10-05T22:39:08.724Z,10.20
2022-10-05T22:44:10.418Z,10.73
2022-10-05T22:49:12.102Z,8.10
2022-10-05T22:54:15.287Z,7.28
2022-10-05T22:59:16.969Z,9.60
2022-10-05T23:04:18.620Z,7.12
2022-10-05T23:09:21.735Z,6.60
2022-10-05T23:14:23.660Z,6.32
2022-10-05T23:19:25.446Z,6.65
2022-10-05T23:24:28.607Z,7.25
2022-10-05T23:29:30.320Z,12.13
2022-10-05T23:34:32.032Z,8.48
2022-10-05T23:39:39.352Z,8.75
2022-10-05T23:44:41.193Z,9.65
2022-10-05T23:49:42.844Z,8.90
2022-10-05T23:54:46.005Z,9.30
